This is the latest recevied weather packets stored in our database for station/object KB9GXK. If no packets are shown the sender has not sent any weather packets the latest 10 day(s).
| Time | Temp. | Humidity | Pressure | Rain* | Wind** | Luminosity | Snow |
|---|---|---|---|---|---|---|---|
| 1777917354 | 25.56° C | 29% | 1000.1 hPa | 0 mm | - | 687 W/m² | - |
| 1777917051 | 25° C | 29% | 1000 hPa | 0 mm | - | 713 W/m² | - |
| 1777916749 | 25° C | 28% | 1000.2 hPa | 0 mm | - | 693 W/m² | - |
| 1777916446 | 25.56° C | 28% | 1000.2 hPa | 0 mm | - | 703 W/m² | - |
| 1777916142 | 25° C | 29% | 1000.2 hPa | 0 mm | - | 709 W/m² | - |
| 1777915840 | 25° C | 28% | 1000.3 hPa | 0 mm | - | 711 W/m² | - |
| 1777915536 | 25.56° C | 28% | 1000.4 hPa | 0 mm | - | 695 W/m² | - |
| 1777915233 | 25.56° C | 28% | 1000.6 hPa | 0 mm | - | 698 W/m² | - |
| 1777914930 | 25° C | 30% | 1000.8 hPa | 0 mm | - | 628 W/m² | - |
| 1777914627 | 25° C | 28% | 1000.7 hPa | 0 mm | - | 710 W/m² | - |
| 1777914322 | 24.44° C | 31% | 1000.7 hPa | 0 mm | - | 715 W/m² | - |
| 1777914021 | 25° C | 31% | 1001.1 hPa | 0 mm | - | 704 W/m² | - |
| 1777913716 | 25° C | 32% | 1000.9 hPa | 0 mm | - | 702 W/m² | - |
| 1777913413 | 25° C | 30% | 1001.2 hPa | 0 mm | - | 697 W/m² | - |
| 1777913109 | 23.89° C | 30% | 1001.2 hPa | 0 mm | - | 697 W/m² | - |
| 1777912806 | 23.89° C | 31% | 1001.4 hPa | 0 mm | - | 693 W/m² | - |
| 1777912501 | 24.44° C | 32% | 1001.2 hPa | 0 mm | - | 687 W/m² | - |
| 1777912198 | 23.33° C | 34% | 1001.4 hPa | 0 mm | - | 682 W/m² | - |
| 1777911895 | 23.89° C | 32% | 1001.2 hPa | 0 mm | - | 677 W/m² | - |
| 1777911591 | 23.33° C | 34% | 1001.7 hPa | 0 mm | - | 672 W/m² | - |
| 1777911287 | 23.89° C | 31% | 1001.6 hPa | 0 mm | - | 666 W/m² | - |
| 1777910984 | 23.89° C | 31% | 1001.5 hPa | 0 mm | - | 660 W/m² | - |
| 1777910683 | 23.89° C | 31% | 1001.8 hPa | 0 mm | - | 653 W/m² | - |
| 1777910378 | 23.89° C | 32% | 1001.7 hPa | 0 mm | - | 643 W/m² | - |
| 1777910075 | 23.89° C | 31% | 1001.9 hPa | 0 mm | - | 638 W/m² | - |
* Rain latest hour (hover to see other rain measurements)
** Current wind speed in m/s (hover to see current wind gust speed)